createdAt,value
2022-09-10T00:02:03.339Z,100020.91
2022-09-10T00:04:52.011Z,100018.84
2022-09-10T00:07:40.450Z,100019.44
2022-09-10T00:10:28.863Z,100013.25
2022-09-10T00:13:21.494Z,100009.19
2022-09-10T00:16:12.198Z,100009.97
2022-09-10T00:19:02.058Z,100016.38
2022-09-10T00:21:51.508Z,100017.44
2022-09-10T00:24:39.908Z,100016.84
2022-09-10T00:27:29.601Z,100020.13
2022-09-10T00:30:22.548Z,100018.47
2022-09-10T00:33:11.547Z,100013.69
2022-09-10T00:35:59.963Z,100017.44
2022-09-10T00:38:48.543Z,100013.69
2022-09-10T00:41:38.564Z,100008.34
2022-09-10T00:45:02.902Z,100004.16
2022-09-10T00:47:53.885Z,100015.94
2022-09-10T00:50:43.963Z,100011.59
2022-09-10T00:53:32.661Z,100008.34
2022-09-10T00:56:21.386Z,100012.06
2022-09-10T00:59:10.909Z,100013.69
2022-09-10T01:02:00.166Z,100016.38
2022-09-10T01:04:50.794Z,100012.06
2022-09-10T01:07:40.292Z,100014.53
2022-09-10T01:10:31.498Z,100015.34
2022-09-10T01:13:27.119Z,100018.03
2022-09-10T01:16:22.350Z,100016.38
2022-09-10T01:19:24.345Z,100012.66
2022-09-10T01:22:22.605Z,100014.53
2022-09-10T01:25:20.628Z,100016.19
2022-09-10T01:28:12.682Z,100013.13
2022-09-10T01:31:06.259Z,100012.06
2022-09-10T01:34:02.143Z,100003.81
2022-09-10T01:36:51.974Z,100007.28
2022-09-10T01:39:41.230Z,100008.34
2022-09-10T01:42:31.634Z,100012.06
2022-09-10T01:45:21.619Z,100012.28
2022-09-10T01:48:29.172Z,100012.06
2022-09-10T01:51:24.576Z,100013.69
2022-09-10T01:54:25.354Z,100011.03
2022-09-10T01:57:24.436Z,100012.66
2022-09-10T02:00:15.104Z,100009.38
2022-09-10T02:03:08.733Z,100011.22
2022-09-10T02:05:57.982Z,100003.81
2022-09-10T02:08:50.661Z,100009.19
2022-09-10T02:11:47.318Z,100012.44
2022-09-10T02:14:36.014Z,100012.06
2022-09-10T02:17:26.754Z,100009.59
2022-09-10T02:20:17.074Z,100009.97
2022-09-10T02:23:07.320Z,100013.69
2022-09-10T02:25:55.999Z,100012.06
2022-09-10T02:28:45.272Z,100013.13
2022-09-10T02:31:33.841Z,100007.28
2022-09-10T02:34:22.349Z,100016.38
2022-09-10T02:37:12.176Z,100017.44
2022-09-10T02:40:01.081Z,100006.72
2022-09-10T02:42:49.862Z,100008.34
2022-09-10T02:45:41.076Z,100001.34
2022-09-10T02:48:31.117Z,100001.34
2022-09-10T02:51:19.752Z,100004.25
2022-09-10T02:54:09.792Z,100003.44
2022-09-10T02:57:00.201Z,100010.44
2022-09-10T02:59:48.847Z,100008.81
2022-09-10T03:02:37.784Z,99999.72
2022-09-10T03:05:26.266Z,100001.56
2022-09-10T03:08:14.801Z,100005.06
2022-09-10T03:11:04.948Z,100016.59
2022-09-10T03:13:55.800Z,100009.38
2022-09-10T03:16:44.212Z,100006.72
2022-09-10T03:19:32.709Z,100003.44
2022-09-10T03:22:21.166Z,100012.88
2022-09-10T03:25:09.808Z,100008.34
2022-09-10T03:27:59.850Z,100022.78
2022-09-10T03:30:48.243Z,99998.66
2022-09-10T03:33:37.428Z,100013.69
2022-09-10T03:36:29.352Z,100006.91
2022-09-10T03:39:18.892Z,100001.34
2022-09-10T03:42:07.527Z,100005.06
2022-09-10T03:44:57.455Z,100007.50
2022-09-10T03:47:46.071Z,100006.13
2022-09-10T03:50:35.077Z,100008.81
2022-09-10T03:53:23.882Z,100010.44
2022-09-10T03:56:13.904Z,100009.38
2022-09-10T03:59:02.474Z,100015.81
2022-09-10T04:01:52.236Z,100012.06
2022-09-10T04:04:41.002Z,100016.84
2022-09-10T04:07:30.279Z,100014.16
2022-09-10T04:10:20.363Z,100013.13
2022-09-10T04:13:09.264Z,100020.31
2022-09-10T04:15:58.213Z,100018.69
2022-09-10T04:18:48.074Z,100024.88
2022-09-10T04:21:36.561Z,100021.63
2022-09-10T04:24:25.085Z,100019.53
2022-09-10T04:27:14.807Z,100010.91
2022-09-10T04:30:03.483Z,100012.53
2022-09-10T04:32:54.762Z,100010.06
2022-09-10T04:35:45.339Z,100017.28
2022-09-10T04:38:34.875Z,100021.00
2022-09-10T04:41:25.975Z,100030.69
2022-09-10T04:44:14.579Z,100025.94
2022-09-10T04:47:03.043Z,100023.25
2022-09-10T04:49:51.482Z,100024.88
2022-09-10T04:52:43.155Z,100033.97
2022-09-10T04:55:31.916Z,100033.16
2022-09-10T04:58:21.239Z,100034.56
2022-09-10T05:01:09.764Z,100033.97
2022-09-10T05:03:59.524Z,100044.72
2022-09-10T05:06:50.365Z,100046.56
2022-09-10T05:09:41.275Z,100039.34
2022-09-10T05:12:29.665Z,100043.06
2022-09-10T05:15:18.336Z,100052.75
2022-09-10T05:18:07.611Z,100055.44
2022-09-10T05:20:56.126Z,100046.75
2022-09-10T05:23:45.088Z,100035.63
2022-09-10T05:26:34.899Z,100041.78
2022-09-10T05:29:23.367Z,100046.72
2022-09-10T05:32:11.765Z,100052.28
2022-09-10T05:35:00.208Z,100046.72
2022-09-10T05:37:48.652Z,100047.06
2022-09-10T05:40:37.308Z,100042.75
2022-09-10T05:43:27.449Z,100047.06
2022-09-10T05:46:15.859Z,100042.75
2022-09-10T05:49:04.303Z,100045.44
2022-09-10T05:51:52.823Z,100044.63
2022-09-10T05:54:41.331Z,100037.63
2022-09-10T05:57:31.149Z,100050.78
2022-09-10T06:00:21.135Z,100052.41
2022-09-10T06:03:10.302Z,100043.78
2022-09-10T06:05:59.106Z,100048.09
2022-09-10T06:08:52.277Z,100040.06
2022-09-10T06:11:41.799Z,100049.75
2022-09-10T06:14:31.103Z,100043.56
2022-09-10T06:17:22.665Z,100049.75
2022-09-10T06:20:15.658Z,100050.78
2022-09-10T06:23:04.114Z,100047.91
2022-09-10T06:26:02.012Z,100050.31
2022-09-10T06:28:50.720Z,100056.31
2022-09-10T06:31:39.133Z,100053.00
2022-09-10T06:34:28.937Z,100061.06
2022-09-10T06:37:18.600Z,100053.63
2022-09-10T06:40:08.802Z,100060.63
2022-09-10T06:42:57.210Z,100060.63
2022-09-10T06:45:45.691Z,100056.91
2022-09-10T06:48:39.414Z,100058.53
2022-09-10T06:51:30.877Z,100056.91
2022-09-10T06:54:19.836Z,100049.66
2022-09-10T06:57:08.446Z,100053.97
2022-09-10T06:59:56.886Z,100040.34
2022-09-10T07:02:45.334Z,100040.34
2022-09-10T07:05:34.199Z,100043.03
2022-09-10T07:08:27.646Z,100040.34
2022-09-10T07:11:17.556Z,100042.00
2022-09-10T07:14:06.027Z,100045.25
2022-09-10T07:16:55.550Z,100048.78
2022-09-10T07:19:43.939Z,100035.94
2022-09-10T07:22:33.028Z,100041.53
2022-09-10T07:25:22.929Z,100043.19
2022-09-10T07:28:15.221Z,100037.22
2022-09-10T07:31:13.600Z,100040.25
2022-09-10T07:34:03.083Z,100046.47
2022-09-10T07:36:51.729Z,100052.41
2022-09-10T07:39:40.212Z,100041.91
2022-09-10T07:42:30.101Z,100051.38
2022-09-10T07:45:19.683Z,100046.81
2022-09-10T07:48:08.142Z,100045.78
2022-09-10T07:51:03.407Z,100052.16
2022-09-10T07:53:55.150Z,100051.38
2022-09-10T07:56:43.500Z,100051.38
2022-09-10T07:59:34.794Z,100060.00
2022-09-10T08:02:25.765Z,100060.00
2022-09-10T08:05:14.530Z,100067.00
2022-09-10T08:08:03.336Z,100062.69
2022-09-10T08:10:52.171Z,100063.28
2022-09-10T08:13:43.009Z,100070.28
2022-09-10T08:16:33.070Z,100069.47
2022-09-10T08:19:21.519Z,100070.28
2022-09-10T08:22:13.499Z,100064.91
2022-09-10T08:25:02.310Z,100055.81
2022-09-10T08:27:50.771Z,100064.09
2022-09-10T08:30:39.662Z,100062.00
2022-09-10T08:33:29.840Z,100064.47
2022-09-10T08:36:18.869Z,100062.38
2022-09-10T08:39:08.507Z,100062.38
2022-09-10T08:41:59.307Z,100065.06
2022-09-10T08:44:50.192Z,100066.75
2022-09-10T08:47:48.247Z,100053.31
2022-09-10T08:50:43.482Z,100066.50
2022-09-10T08:53:34.970Z,100060.91
2022-09-10T08:56:24.957Z,100065.22
2022-09-10T08:59:20.289Z,100057.19
2022-09-10T09:02:37.897Z,100064.19
2022-09-10T09:05:28.214Z,100065.22
2022-09-10T09:08:22.086Z,100069.34
2022-09-10T09:11:15.090Z,100067.44
2022-09-10T09:14:17.045Z,100068.50
2022-09-10T09:17:18.939Z,100066.88
2022-09-10T09:20:19.351Z,100066.88
2022-09-10T09:23:21.396Z,100062.69
2022-09-10T09:26:13.635Z,100066.44
2022-09-10T09:29:05.383Z,100056.63
2022-09-10T09:31:57.641Z,100061.44
2022-09-10T09:34:50.494Z,100057.34
2022-09-10T09:37:40.590Z,100052.44
2022-09-10T09:40:36.800Z,100054.81
2022-09-10T09:43:43.749Z,100063.44
2022-09-10T09:46:32.853Z,100060.19
2022-09-10T09:49:21.526Z,100050.75
2022-09-10T09:52:20.699Z,100057.88
2022-09-10T09:55:17.302Z,100045.25
2022-09-10T09:58:36.143Z,100047.88
2022-09-10T10:01:25.493Z,100039.78
2022-09-10T10:04:21.569Z,100033.50
2022-09-10T10:07:10.130Z,100034.28
2022-09-10T10:10:01.066Z,100035.44
2022-09-10T10:12:51.289Z,100040.13
2022-09-10T10:15:42.797Z,100027.31
2022-09-10T10:18:32.726Z,100027.31
2022-09-10T10:21:24.400Z,100029.78
2022-09-10T10:24:31.802Z,100033.06
2022-09-10T10:27:30.004Z,100016.97
2022-09-10T10:30:23.915Z,100021.88
2022-09-10T10:33:21.113Z,100015.25
2022-09-10T10:36:16.743Z,100014.00
2022-09-10T10:39:08.931Z,100013.53
2022-09-10T10:42:04.416Z,100016.81
2022-09-10T10:45:06.371Z,100014.94
2022-09-10T10:47:57.136Z,100020.31
2022-09-10T10:50:53.206Z,100013.91
2022-09-10T10:53:54.721Z,100016.81
2022-09-10T10:56:44.490Z,100008.16
2022-09-10T10:59:45.151Z,100007.72
2022-09-10T11:02:40.028Z,100008.16
2022-09-10T11:05:32.107Z,100004.91
2022-09-10T11:08:27.165Z,99992.53
2022-09-10T11:11:18.899Z,99990.91
2022-09-10T11:14:16.248Z,99990.44
2022-09-10T11:17:07.617Z,99990.44
2022-09-10T11:20:26.714Z,99992.06
2022-09-10T11:23:20.552Z,99999.22
2022-09-10T11:26:14.541Z,99995.50
2022-09-10T11:29:14.369Z,99991.91
2022-09-10T11:32:06.406Z,99984.25
2022-09-10T11:34:58.957Z,99988.81
2022-09-10T11:37:52.975Z,99983.44
2022-09-10T11:40:46.479Z,99978.16
2022-09-10T11:43:41.263Z,99976.06
2022-09-10T11:46:34.310Z,99968.78
2022-09-10T11:49:26.400Z,99971.34
2022-09-10T11:52:15.144Z,99971.78
2022-09-10T11:55:08.393Z,99969.47
2022-09-10T11:58:03.353Z,99969.25
2022-09-10T12:01:05.625Z,99962.56
2022-09-10T12:04:09.135Z,99972.91
2022-09-10T12:07:04.302Z,99962.63
2022-09-10T12:10:01.577Z,99954.59
2022-09-10T12:12:51.263Z,99957.28
2022-09-10T12:15:39.888Z,99951.06
2022-09-10T12:18:38.712Z,99953.34
2022-09-10T12:21:33.583Z,99949.25
2022-09-10T12:24:30.935Z,99956.44
2022-09-10T12:27:20.782Z,99956.81
2022-09-10T12:30:39.370Z,99959.25
2022-09-10T12:34:01.261Z,99956.44
2022-09-10T12:37:22.557Z,99958.69
2022-09-10T12:40:45.781Z,99961.59
2022-09-10T12:43:55.945Z,99954.72
2022-09-10T12:46:45.061Z,99964.91
2022-09-10T12:49:33.753Z,99949.97
2022-09-10T12:52:34.338Z,99953.03
2022-09-10T12:55:29.103Z,99955.78
2022-09-10T12:58:25.946Z,99947.75
2022-09-10T13:01:21.605Z,99950.13
2022-09-10T13:04:24.547Z,99963.06
2022-09-10T13:07:23.556Z,99953.38
2022-09-10T13:10:22.338Z,99956.53
2022-09-10T13:13:32.879Z,99958.44
2022-09-10T13:16:39.004Z,99949.16
2022-09-10T13:19:54.398Z,99943.81
2022-09-10T13:22:58.545Z,99944.25
2022-09-10T13:25:48.991Z,99941.00
2022-09-10T13:29:01.388Z,99930.59
2022-09-10T13:31:58.397Z,99933.06
2022-09-10T13:35:17.018Z,99930.47
2022-09-10T13:38:22.648Z,99922.13
2022-09-10T13:41:22.074Z,99934.78
2022-09-10T13:44:21.210Z,99927.63
2022-09-10T13:47:13.025Z,99929.13
2022-09-10T13:50:03.003Z,99933.06
2022-09-10T13:52:54.990Z,99927.34
2022-09-10T13:55:53.539Z,99933.16
2022-09-10T13:58:48.448Z,99925.75
2022-09-10T14:01:54.864Z,99923.91
2022-09-10T14:04:45.215Z,99921.22
2022-09-10T14:07:34.879Z,99925.69
2022-09-10T14:10:24.242Z,99909.63
2022-09-10T14:13:12.751Z,99921.97
2022-09-10T14:16:04.513Z,99924.06
2022-09-10T14:18:58.604Z,99923.47
2022-09-10T14:21:49.331Z,99911.94
2022-09-10T14:24:50.325Z,99921.66
2022-09-10T14:27:40.438Z,99913.84
2022-09-10T14:30:30.793Z,99911.84
2022-09-10T14:33:26.317Z,99908.88
2022-09-10T14:36:17.250Z,99916.28
2022-09-10T14:39:07.923Z,99917.25
2022-09-10T14:42:22.986Z,99918.78
2022-09-10T14:45:39.260Z,99920.53
2022-09-10T14:48:36.997Z,99919.81
2022-09-10T14:51:25.975Z,99919.06
2022-09-10T14:54:14.910Z,99926.47
2022-09-10T14:57:05.228Z,99918.41
2022-09-10T14:59:57.235Z,99915.63
2022-09-10T15:02:46.234Z,99915.28
2022-09-10T15:05:36.074Z,99913.50
2022-09-10T15:08:25.659Z,99918.19
2022-09-10T15:11:16.237Z,99916.78
2022-09-10T15:14:04.693Z,99927.66
2022-09-10T15:16:54.062Z,99933.19
2022-09-10T15:19:42.679Z,99924.53
2022-09-10T15:22:32.705Z,99935.28
2022-09-10T15:25:33.870Z,99935.84
2022-09-10T15:28:24.604Z,99933.19
2022-09-10T15:31:13.204Z,99928.72
2022-09-10T15:34:02.916Z,99945.25
2022-09-10T15:36:52.940Z,99951.19
2022-09-10T15:39:42.686Z,99953.28
2022-09-10T15:42:32.023Z,99963.91
2022-09-10T15:45:20.427Z,99962.75
2022-09-10T15:48:08.825Z,99954.22
2022-09-10T15:50:57.230Z,99968.09
2022-09-10T15:53:46.318Z,99963.16
2022-09-10T15:56:36.691Z,99966.09
2022-09-10T15:59:25.159Z,99960.34
2022-09-10T16:02:13.914Z,99962.44
2022-09-10T16:05:02.327Z,99964.50
2022-09-10T16:07:50.695Z,99967.81
2022-09-10T16:10:40.429Z,99967.81
2022-09-10T16:13:30.179Z,99964.00
2022-09-10T16:16:21.166Z,99968.53
2022-09-10T16:19:10.561Z,99969.44
2022-09-10T16:21:58.945Z,99973.47
2022-09-10T16:24:47.395Z,99977.78
2022-09-10T16:27:35.923Z,99975.09
2022-09-10T16:30:26.274Z,99975.09
2022-09-10T16:33:14.804Z,99978.47
2022-09-10T16:36:05.661Z,99974.16
2022-09-10T16:38:55.221Z,99976.72
2022-09-10T16:41:45.211Z,99969.25
2022-09-10T16:44:33.931Z,99974.47
2022-09-10T16:47:23.759Z,99967.94
2022-09-10T16:50:12.298Z,99972.72
2022-09-10T16:53:02.597Z,99970.63
2022-09-10T16:55:51.440Z,99979.25
2022-09-10T16:58:41.304Z,99984.25
2022-09-10T17:01:31.142Z,99983.44
2022-09-10T17:04:28.208Z,99978.53
2022-09-10T17:07:17.249Z,99979.72
2022-09-10T17:10:06.332Z,99978.06
2022-09-10T17:12:54.733Z,99981.34
2022-09-10T17:15:43.325Z,99979.13
2022-09-10T17:18:31.779Z,99982.97
2022-09-10T17:21:23.080Z,99977.78
2022-09-10T17:24:13.150Z,99986.25
2022-09-10T17:27:02.580Z,99987.84
2022-09-10T17:29:50.962Z,99986.44
2022-09-10T17:32:40.157Z,99984.34
2022-09-10T17:35:28.730Z,99982.88
2022-09-10T17:38:18.563Z,99978.44
2022-09-10T17:41:07.273Z,99976.63
2022-09-10T17:43:55.763Z,99989.28
2022-09-10T17:46:45.010Z,99992.88
2022-09-10T17:49:33.445Z,99991.16
2022-09-10T17:52:23.600Z,99991.50
2022-09-10T17:55:14.853Z,99993.13
2022-09-10T17:58:04.733Z,99988.06
2022-09-10T18:01:02.069Z,99989.03
2022-09-10T18:03:50.480Z,99998.78
2022-09-10T18:06:38.946Z,100001.50
2022-09-10T18:09:27.422Z,100005.38
2022-09-10T18:12:17.157Z,100004.59
2022-09-10T18:15:06.329Z,100005.13
2022-09-10T18:17:55.177Z,100006.53
2022-09-10T18:20:43.554Z,100005.94
2022-09-10T18:23:31.939Z,99999.47
2022-09-10T18:26:22.781Z,100006.06
2022-09-10T18:29:14.394Z,100002.22
2022-09-10T18:32:02.985Z,99988.81
2022-09-10T18:34:51.399Z,100003.72
2022-09-10T18:37:40.253Z,100003.31
2022-09-10T18:40:28.628Z,100009.47
2022-09-10T18:43:17.145Z,100007.84
2022-09-10T18:46:09.991Z,100003.13
2022-09-10T18:48:59.123Z,100006.69
2022-09-10T18:51:48.153Z,100011.97
2022-09-10T18:54:42.520Z,100016.09
2022-09-10T18:57:34.826Z,100021.44
2022-09-10T19:00:25.595Z,100024.28
2022-09-10T19:03:15.394Z,100030.41
2022-09-10T19:06:06.327Z,100039.03
2022-09-10T19:08:57.446Z,100037.84
2022-09-10T19:11:48.653Z,100046.41
2022-09-10T19:14:37.947Z,100045.66
2022-09-10T19:17:27.425Z,100045.44
2022-09-10T19:20:17.477Z,100043.66
2022-09-10T19:23:05.974Z,100040.50
2022-09-10T19:25:56.226Z,100033.31
2022-09-10T19:28:45.150Z,100039.50
2022-09-10T19:31:35.709Z,100045.88
2022-09-10T19:34:27.968Z,100047.69
2022-09-10T19:37:18.201Z,100047.22
2022-09-10T19:40:07.399Z,100046.63
2022-09-10T19:42:55.837Z,100048.91
2022-09-10T19:45:45.827Z,100045.25
2022-09-10T19:48:35.377Z,100054.81
2022-09-10T19:51:23.960Z,100054.97
2022-09-10T19:54:14.445Z,100050.28
2022-09-10T19:57:02.890Z,100058.13
2022-09-10T19:59:51.330Z,100047.63
2022-09-10T20:02:41.240Z,100041.09
2022-09-10T20:05:29.841Z,100044.91
2022-09-10T20:08:18.182Z,100048.84
2022-09-10T20:11:10.602Z,100047.88
2022-09-10T20:14:00.535Z,100044.16
2022-09-10T20:16:49.044Z,100044.38
2022-09-10T20:19:37.449Z,100035.94
2022-09-10T20:22:25.811Z,100033.00
2022-09-10T20:25:17.060Z,100033.06
2022-09-10T20:28:07.089Z,100033.94
2022-09-10T20:30:56.406Z,100035.34
2022-09-10T20:33:45.246Z,100027.38
2022-09-10T20:36:35.074Z,100030.69
2022-09-10T20:39:25.139Z,100032.75
2022-09-10T20:42:13.968Z,100024.56
2022-09-10T20:45:03.749Z,100025.81
2022-09-10T20:47:53.007Z,100028.28
2022-09-10T20:50:41.516Z,100029.16
2022-09-10T20:53:29.910Z,100023.78
2022-09-10T20:56:20.156Z,100027.97
2022-09-10T20:59:08.815Z,100035.34
2022-09-10T21:01:58.547Z,100027.50
2022-09-10T21:04:47.002Z,100031.22
2022-09-10T21:07:35.667Z,100038.22
2022-09-10T21:10:24.077Z,100022.34
2022-09-10T21:13:12.620Z,100026.66
2022-09-10T21:16:10.475Z,100027.69
2022-09-10T21:19:01.424Z,100029.47
2022-09-10T21:21:49.870Z,100028.69
2022-09-10T21:24:39.698Z,100021.66
2022-09-10T21:27:29.294Z,100020.06
2022-09-10T21:30:17.905Z,100024.44
2022-09-10T21:33:07.133Z,100024.28
2022-09-10T21:36:02.807Z,100030.25
2022-09-10T21:38:53.377Z,100031.50
2022-09-10T21:41:43.986Z,100036.25
2022-09-10T21:44:32.441Z,100034.59
2022-09-10T21:47:20.973Z,100030.44
2022-09-10T21:50:10.140Z,100034.00
2022-09-10T21:52:59.895Z,100033.81
2022-09-10T21:55:48.337Z,100035.19
2022-09-10T21:58:38.398Z,100034.59
2022-09-10T22:01:28.245Z,100034.16
2022-09-10T22:04:22.169Z,100040.75
2022-09-10T22:07:11.377Z,100046.91
2022-09-10T22:10:01.159Z,100052.31
2022-09-10T22:12:49.555Z,100048.19
2022-09-10T22:15:40.347Z,100049.22
2022-09-10T22:18:29.737Z,100062.00
2022-09-10T22:21:19.394Z,100051.28
2022-09-10T22:24:09.317Z,100060.69
2022-09-10T22:26:59.329Z,100051.09
2022-09-10T22:29:47.924Z,100058.63
2022-09-10T22:32:36.621Z,100062.06
2022-09-10T22:35:26.619Z,100057.88
2022-09-10T22:38:19.148Z,100062.38
2022-09-10T22:41:10.132Z,100062.81
2022-09-10T22:44:00.185Z,100063.56
2022-09-10T22:46:48.817Z,100058.13
2022-09-10T22:49:37.402Z,100062.25
2022-09-10T22:52:27.878Z,100065.09
2022-09-10T22:55:16.585Z,100060.94
2022-09-10T22:58:05.022Z,100064.06
2022-09-10T23:00:54.870Z,100072.97
2022-09-10T23:03:44.688Z,100071.22
2022-09-10T23:06:34.299Z,100071.47
2022-09-10T23:09:22.796Z,100069.91
2022-09-10T23:12:11.278Z,100069.28
2022-09-10T23:14:59.801Z,100075.28
2022-09-10T23:17:49.661Z,100075.72
2022-09-10T23:20:38.437Z,100073.06
2022-09-10T23:23:27.557Z,100077.81
2022-09-10T23:26:17.259Z,100074.69
2022-09-10T23:29:06.057Z,100087.50
2022-09-10T23:31:54.600Z,100079.66
2022-09-10T23:34:44.646Z,100090.63
2022-09-10T23:37:33.971Z,100083.03
2022-09-10T23:40:27.918Z,100089.44
2022-09-10T23:43:18.484Z,100084.06
2022-09-10T23:46:07.461Z,100086.13
2022-09-10T23:48:56.736Z,100084.47
2022-09-10T23:51:49.053Z,100080.81
2022-09-10T23:54:38.699Z,100081.06
2022-09-10T23:57:27.150Z,100075.47
